Auckland, New Zealand

10:56 AM NZST on May 06, 2015 (GMT +1200)
Auckland International | | Change Station
CLOSE
Current Station
Airport
Location: Auckland,
Elevation: 23 ft
Nearby Weather Stations

Elev 23 ft 37.01 °S, 174.79 °E | Updated 26 minutes ago

Scattered Clouds
Scattered Clouds
66 °F
Feels Like 66 °F
N
16
Wind Variable Wind from North

Today
High -- | Low -- °F
--% Chance of Precip.
Yesterday
High -- | Low -- °F
Precip. -- in
7:04 AM 5:30 PM
Waning Gibbous, 97% visible
Pressure 30.27 in
Visibility 6.2 miles
Clouds Few 2300 ft
Scattered Clouds 2900 ft
Dew Point 59 °F
Humidity 78%
Rainfall 0.00 in
Snow Depth Not available.
UV 3 out of 12
Pollen Not available.
Air Quality Not available.
Flu Activity Not available.
METAR NZAA 052230Z AUTO 36014KT 330V030 9999 FEW023/// SCT029/// 19/15 Q1025 NOSIG

More Conditions Fewer Conditions

Pressure 30.27 in
Visibility 6.2 miles
Clouds Few 2300 ft
Scattered Clouds 2900 ft
Dew Point 59 °F
Humidity 78%
Rainfall 0.00 in
Snow Depth Not available.
UV 3 out of 12
Pollen Not available.
Air Quality Not available.
Flu Activity Not available.
METAR NZAA 052230Z AUTO 36014KT 330V030 9999 FEW023/// SCT029/// 19/15 Q1025 NOSIG

More Conditions Fewer Conditions

10-Day Weather Forecast

Almanac

Astronomy

May. 06, 2015 Rise Set
Actual Time
Civil Twilight
Nautical Twilight
Astronomical Twilight
Moon
Length of Visible Light
Length of Day
Tomorrow will be .
, % of the Moon is Illuminated

Today's Extremes

Country Highs Country Lows

Community

WunderPhotos

Upload Photos

1,819,000 photos uploaded!

WunderBlogs® & News

Nearby

Air Quality

  Air Quality AQ Index Pollutant
Not available.

Snow Depth

Station Depth Elevation

Earthquake Activity

City Distance Mag. Time & Date
Minimum magnitude displayed is 2.5.

Coastal Water Temperatures

Place Temperature

Stations

Nearby Weather Stations

Station Location Temp. Windchill Dew Point Humidity Wind Precip. Elev Updated Type